Terminal Aerodrome Forecast
Issued by NWS

Home | Current Version | Previous Version | Text Only | Print | Product List | Glossary On
Versions: 1 2 3 4 5 6 7 8 9 10 11 12
000
FTUS43 KMQT 220532
TAFCMX
TAF
KCMX 220532Z 2206/2306 17008KT P6SM VCSH BKN100 WS010/19040KT
     FM220800 19011G20KT P6SM -SHRA SCT035 BKN050 WS010/19035KT
     FM221100 21011G20KT P6SM -SHRA BKN035
     FM221200 22011G20KT P6SM -SHRA OVC025
     FM221500 26013G22KT P6SM VCSH OVC040
     FM221800 25012G24KT P6SM OVC070
     FM230100 24008KT P6SM FEW250=

USA.gov is the U.S. government's official web portal to all federal, state and local government web resources and services.